| time (UTC) | temp C | wind direction | speed KPH | gust KPH | rain 1hr cm | rain 24hr cm | rain mn cm | humidity % | barometer mb |
| 20260507144621 | 18 | 261 | 8.0 | 12.9 | 0.00 | 0.00 | 0.00 | 23 | 1016.0 |
| 20260507143621 | 18 | 222 | 4.8 | 8.0 | 0.00 | 0.00 | 0.00 | 23 | 1016.0 |
| 20260507142621 | 18 | 238 | 4.8 | 8.0 | 0.00 | 0.00 | 0.00 | 23 | 1015.9 |
| 20260507141620 | 17 | 250 | 6.4 | 11.3 | 0.00 | 0.00 | 0.00 | 24 | 1015.9 |
| 20260507140620 | 17 | 237 | 6.4 | 12.9 | 0.00 | 0.00 | 0.00 | 24 | 1015.9 |
| 20260507135620 | 18 | 252 | 6.4 | 9.7 | 0.00 | 0.00 | 0.00 | 23 | 1016.1 |
| 20260507134619 | 18 | 225 | 4.8 | 8.0 | 0.00 | 0.00 | 0.00 | 23 | 1016.1 |
| 20260507133619 | 18 | 253 | 3.2 | 6.4 | 0.00 | 0.00 | 0.00 | 23 | 1016.1 |
| 20260507132619 | 18 | 244 | 4.8 | 8.0 | 0.00 | 0.00 | 0.00 | 23 | 1016.2 |
| 20260507131619 | 18 | 215 | 6.4 | 9.7 | 0.00 | 0.00 | 0.00 | 23 | 1016.2 |
| 20260507130618 | 18 | 246 | 4.8 | 6.4 | 0.00 | 0.00 | 0.00 | 23 | 1016.2 |
| 20260507125618 | 18 | 238 | 4.8 | 6.4 | 0.00 | 0.00 | 0.00 | 23 | 1016.3 |
| 20260507124618 | 18 | 194 | 4.8 | 6.4 | 0.00 | 0.00 | 0.00 | 23 | 1016.5 |
| 20260507123617 | 18 | 228 | 4.8 | 6.4 | 0.00 | 0.00 | 0.00 | 23 | 1016.3 |
| 20260507122617 | 17 | 230 | 3.2 | 6.4 | 0.00 | 0.00 | 0.00 | 24 | 1016.1 |
| 20260507121617 | 15 | 243 | 6.4 | 9.7 | 0.00 | 0.00 | 0.00 | 25 | 1016.0 |
| 20260507120616 | 16 | 262 | 6.4 | 9.7 | 0.00 | 0.00 | 0.00 | 24 | 1016.0 |
| 20260507115616 | 16 | 214 | 6.4 | 8.0 | 0.00 | 0.00 | 0.00 | 24 | 1016.0 |
| 20260507114616 | 17 | 239 | 8.0 | 9.7 | 0.00 | 0.00 | 0.00 | 24 | 1015.9 |
| 20260507113616 | 19 | 238 | 4.8 | 16.1 | 0.00 | 0.00 | 0.00 | 23 | 1016.2 |
| 20260507112615 | 19 | 296 | 1.6 | 6.4 | 0.00 | 0.00 | 0.00 | 23 | 1016.2 |
| 20260507111615 | 18 | 286 | 4.8 | 6.4 | 0.00 | 0.00 | 0.00 | 23 | 1016.1 |
| 20260507110615 | 19 | 228 | 3.2 | 11.3 | 0.00 | 0.00 | 0.00 | 23 | 1016.1 |
| 20260507105614 | 19 | 243 | 4.8 | 8.0 | 0.00 | 0.00 | 0.00 | 23 | 1015.9 |
| 20260507104614 | 20 | 247 | 4.8 | 9.7 | 0.00 | 0.00 | 0.00 | 23 | 1016.1 |
| 20260507103614 | 19 | 247 | 4.8 | 11.3 | 0.00 | 0.00 | 0.00 | 23 | 1016.0 |
| 20260507102614 | 20 | 252 | 6.4 | 12.9 | 0.00 | 0.00 | 0.00 | 22 | 1016.1 |
| 20260507101613 | 21 | 263 | 6.4 | 11.3 | 0.00 | 0.00 | 0.00 | 22 | 1016.3 |
| 20260507100613 | 21 | 267 | 3.2 | 8.0 | 0.00 | 0.00 | 0.00 | 22 | 1016.2 |
| 20260507095613 | 21 | 259 | 4.8 | 6.4 | 0.00 | 0.00 | 0.00 | 22 | 1016.2 |
| 20260507094612 | 19 | 247 | 9.7 | 14.5 | 0.00 | 0.00 | 0.00 | 23 | 1015.9 |
| 20260507093612 | 18 | 240 | 4.8 | 14.5 | 0.00 | 0.00 | 0.00 | 23 | 1015.9 |
| 20260507092612 | 20 | 268 | 6.4 | 8.0 | 0.00 | 0.00 | 0.00 | 22 | 1015.9 |
| 20260507091612 | 18 | 216 | 6.4 | 11.3 | 0.00 | 0.00 | 0.00 | 23 | 1015.7 |
| 20260507090611 | 19 | 243 | 6.4 | 11.3 | 0.00 | 0.00 | 0.00 | 23 | 1015.7 |
| 20260507085611 | 19 | 246 | 4.8 | 6.4 | 0.00 | 0.00 | 0.00 | 23 | 1015.7 |
| 20260507084611 | 19 | 108 | 3.2 | 6.4 | 0.00 | 0.00 | 0.00 | 23 | 1015.7 |
| 20260507083610 | 18 | 244 | 3.2 | 6.4 | 0.00 | 0.00 | 0.00 | 23 | 1015.5 |
| 20260507082610 | 18 | 232 | 8.0 | 12.9 | 0.00 | 0.00 | 0.00 | 23 | 1015.5 |
| 20260507081610 | 20 | 240 | 6.4 | 9.7 | 0.00 | 0.00 | 0.00 | 23 | 1015.5 |
| 20260507080609 | 18 | 222 | 4.8 | 9.7 | 0.00 | 0.00 | 0.00 | 23 | 1015.3 |
| 20260507075609 | 18 | 288 | 1.6 | 6.4 | 0.00 | 0.00 | 0.00 | 23 | 1015.2 |
| 20260507074609 | 17 | 246 | 4.8 | 12.9 | 0.00 | 0.00 | 0.00 | 24 | 1015.1 |
| 20260507073609 | 17 | 234 | 3.2 | 12.9 | 0.00 | 0.00 | 0.00 | 24 | 1015.0 |
| 20260507072608 | 19 | 253 | 3.2 | 6.4 | 0.00 | 0.00 | 0.00 | 23 | 1014.9 |
| 20260507071608 | 18 | 211 | 1.6 | 3.2 | 0.00 | 0.00 | 0.00 | 23 | 1014.8 |
| 20260507070608 | 18 | 252 | 3.2 | 8.0 | 0.00 | 0.00 | 0.00 | 23 | 1014.7 |
| 20260507065607 | 17 | 280 | 3.2 | 6.4 | 0.00 | 0.00 | 0.00 | 24 | 1014.6 |
| 20260507064607 | 17 | 259 | 3.2 | 4.8 | 0.00 | 0.00 | 0.00 | 24 | 1014.5 |
| 20260507063607 | 17 | 262 | 6.4 | 8.0 | 0.00 | 0.00 | 0.00 | 24 | 1014.6 |
| 20260507062607 | 17 | 270 | 3.2 | 8.0 | 0.00 | 0.00 | 0.00 | 24 | 1014.4 |
| 20260507061606 | 17 | 258 | 3.2 | 8.0 | 0.00 | 0.00 | 0.00 | 24 | 1014.4 |
| 20260507060606 | 16 | 270 | 3.2 | 8.0 | 0.00 | 0.00 | 0.00 | 24 | 1014.3 |
| 20260507055606 | 17 | 298 | 6.4 | 8.0 | 0.00 | 0.00 | 0.00 | 24 | 1014.2 |
| 20260507054605 | 17 | 246 | 3.2 | 8.0 | 0.00 | 0.00 | 0.00 | 24 | 1014.3 |
| 20260507053605 | 16 | 265 | 3.2 | 6.4 | 0.00 | 0.00 | 0.00 | 24 | 1014.0 |
| 20260507052605 | 17 | 0 | 0.0 | 0.0 | 0.00 | 0.00 | 0.00 | 24 | 1013.9 |
| 20260507051605 | 15 | 0 | 0.0 | 0.0 | 0.00 | 0.00 | 0.00 | 25 | 1013.6 |
| 20260507050604 | 15 | 0 | 0.0 | 0.0 | 0.00 | 0.00 | 0.00 | 25 | 1013.5 |
| 20260507045604 | 15 | 314 | 0.0 | 1.6 | 0.00 | 0.00 | 0.00 | 25 | 1013.5 |
| 20260507044608 | 15 | 281 | 1.6 | 6.4 | 0.00 | 0.00 | 0.00 | 25 | 1013.4 |
| 20260507043603 | 15 | 313 | 3.2 | 4.8 | 0.00 | 0.00 | 0.00 | 25 | 1013.4 |
| 20260507042603 | 15 | 327 | 4.8 | 8.0 | 0.00 | 0.00 | 0.00 | 25 | 1013.3 |
| 20260507041603 | -31 | 1 | 4.8 | 4.8 | 0.00 | 0.00 | 0.00 | 13 | 946.3 |
| 20260507040603 | -31 | 1 | 4.8 | 4.8 | 0.00 | 0.00 | 0.00 | 13 | 946.3 |
| 20260507035602 | -31 | 1 | 4.8 | 4.8 | 0.00 | 0.00 | 0.00 | 13 | 946.2 |
| 20260507034602 | -31 | 1 | 4.8 | 4.8 | 0.00 | 0.00 | 0.00 | 13 | 946.1 |
| 20260507033602 | -31 | 1 | 4.8 | 4.8 | 0.00 | 0.00 | 0.00 | 13 | 946.0 |
| 20260507032601 | 15 | 1 | 4.8 | 4.8 | 0.00 | 0.00 | 0.00 | 25 | 1012.9 |
| 20260507031601 | 15 | 1 | 4.8 | 4.8 | 0.00 | 0.00 | 0.00 | 25 | 1012.9 |
| 20260507030601 | 15 | 1 | 4.8 | 4.8 | 0.00 | 0.00 | 0.00 | 25 | 1012.8 |
| 20260507025600 | 15 | 1 | 4.8 | 4.8 | 0.00 | 0.00 | 0.00 | 25 | 1012.8 |
| 20260507024600 | 15 | 1 | 4.8 | 4.8 | 0.00 | 0.00 | 0.00 | 25 | 1012.9 |
| 20260507023600 | 15 | 1 | 4.8 | 4.8 | 0.00 | 0.00 | 0.00 | 25 | 1012.9 |
| 20260507022600 | 15 | 1 | 4.8 | 4.8 | 0.00 | 0.00 | 0.00 | 25 | 1013.0 |
| 20260507021559 | 15 | 1 | 4.8 | 4.8 | 0.00 | 0.00 | 0.00 | 25 | 1013.0 |
| 20260507020559 | 15 | 1 | 4.8 | 4.8 | 0.00 | 0.00 | 0.00 | 25 | 1012.9 |
| 20260507015559 | 15 | 351 | 4.8 | 6.4 | 0.00 | 0.00 | 0.00 | 25 | 1012.8 |
| 20260507014558 | 15 | 315 | 3.2 | 3.2 | 0.00 | 0.00 | 0.00 | 25 | 1012.5 |
| 20260507013558 | 14 | 315 | 3.2 | 3.2 | 0.00 | 0.00 | 0.00 | 25 | 1012.4 |
| 20260507012558 | 14 | 272 | 4.8 | 4.8 | 0.00 | 0.00 | 0.00 | 25 | 1012.4 |
| 20260507011558 | 14 | 270 | 4.8 | 4.8 | 0.00 | 0.00 | 0.00 | 25 | 1012.4 |
| 20260507010557 | 14 | 270 | 4.8 | 6.4 | 0.00 | 0.00 | 0.00 | 25 | 1012.3 |
| 20260507005557 | 14 | 270 | 6.4 | 6.4 | 0.00 | 0.00 | 0.00 | 25 | 1012.2 |
| 20260507004557 | 14 | 270 | 6.4 | 6.4 | 0.00 | 0.00 | 0.00 | 25 | 1012.2 |
| 20260507003556 | 14 | 270 | 6.4 | 6.4 | 0.00 | 0.00 | 0.00 | 25 | 1012.1 |
| 20260507002556 | 14 | 270 | 6.4 | 6.4 | 0.00 | 0.00 | 0.00 | 25 | 1012.2 |
| 20260507001556 | 14 | 270 | 6.4 | 6.4 | 0.00 | 0.00 | 0.00 | 25 | 1012.2 |
| 20260507000555 | 14 | 90 | 1.6 | 6.4 | 0.00 | 0.00 | 0.00 | 25 | 1012.2 |
| 20260506235555 | 14 | 254 | 1.6 | 3.2 | 0.00 | 0.00 | 0.00 | 25 | 1012.2 |
| 20260506234555 | 15 | 246 | 4.8 | 6.4 | 0.00 | 0.00 | 0.00 | 25 | 1012.3 |
| 20260506233555 | 15 | 181 | 4.8 | 4.8 | 0.00 | 0.00 | 0.00 | 25 | 1012.4 |
| 20260506232554 | 15 | 174 | 4.8 | 4.8 | 0.00 | 0.00 | 0.00 | 25 | 1012.4 |
| 20260506231554 | 15 | 45 | 3.2 | 3.2 | 0.00 | 0.00 | 0.00 | 25 | 1012.4 |
| 20260506230554 | 16 | 45 | 3.2 | 3.2 | 0.00 | 0.00 | 0.00 | 24 | 1012.5 |
| 20260506225553 | 16 | 45 | 3.2 | 3.2 | 0.00 | 0.00 | 0.00 | 24 | 1012.5 |
| 20260506224553 | 16 | 45 | 3.2 | 6.4 | 0.00 | 0.00 | 0.00 | 24 | 1012.5 |
| 20260506223553 | 17 | 225 | 6.4 | 6.4 | 0.00 | 0.00 | 0.00 | 24 | 1012.6 |
| 20260506222553 | 17 | 224 | 4.8 | 6.4 | 0.00 | 0.00 | 0.00 | 24 | 1012.7 |
| 20260506221552 | 17 | 181 | 1.6 | 1.6 | 0.00 | 0.00 | 0.00 | 24 | 1012.7 |
| 20260506220552 | 17 | 181 | 1.6 | 1.6 | 0.00 | 0.00 | 0.00 | 24 | 1012.7 |
| 20260506215552 | 17 | 262 | 8.0 | 12.9 | 0.00 | 0.00 | 0.00 | 24 | 1012.7 |
| 20260506214551 | 17 | 270 | 11.3 | 12.9 | 0.00 | 0.00 | 0.00 | 24 | 1012.7 |
| 20260506213551 | 17 | 270 | 8.0 | 8.0 | 0.00 | 0.00 | 0.00 | 24 | 1012.6 |
| 20260506212551 | 17 | 270 | 8.0 | 8.0 | 0.00 | 0.00 | 0.00 | 24 | 1012.5 |
| 20260506211551 | 17 | 270 | 8.0 | 8.0 | 0.00 | 0.00 | 0.00 | 24 | 1012.4 |
| 20260506210550 | 17 | 203 | 8.0 | 12.9 | 0.00 | 0.00 | 0.00 | 24 | 1012.3 |
| 20260506205550 | 16 | 270 | 1.6 | 6.4 | 0.00 | 0.00 | 0.00 | 24 | 1012.0 |
| 20260506204550 | 16 | 234 | 1.6 | 6.4 | 0.00 | 0.00 | 0.00 | 24 | 1011.9 |
| 20260506203549 | 16 | 342 | 1.6 | 3.2 | 0.00 | 0.00 | 0.00 | 24 | 1012.0 |
| 20260506202549 | 17 | 257 | 3.2 | 6.4 | 0.00 | 0.00 | 0.00 | 24 | 1012.2 |
| 20260506201549 | 17 | 304 | 3.2 | 6.4 | 0.00 | 0.00 | 0.00 | 24 | 1012.4 |
| 20260506200549 | 17 | 259 | 4.8 | 6.4 | 0.00 | 0.00 | 0.00 | 24 | 1012.4 |
| 20260506195548 | 17 | 253 | 3.2 | 8.0 | 0.00 | 0.00 | 0.00 | 24 | 1012.4 |
| 20260506194548 | 17 | 276 | 3.2 | 6.4 | 0.00 | 0.00 | 0.00 | 24 | 1012.3 |
| 20260506193548 | 17 | 265 | 3.2 | 4.8 | 0.00 | 0.00 | 0.00 | 24 | 1012.2 |
| 20260506192547 | 17 | 278 | 3.2 | 6.4 | 0.00 | 0.00 | 0.00 | 24 | 1011.9 |
| 20260506191547 | 16 | 266 | 1.6 | 4.8 | 0.00 | 0.00 | 0.00 | 24 | 1011.8 |
| 20260506190547 | 17 | 266 | 0.0 | 4.8 | 0.00 | 0.00 | 0.00 | 24 | 1011.7 |
| 20260506185546 | 17 | 275 | 1.6 | 6.4 | 0.00 | 0.00 | 0.00 | 24 | 1011.7 |
| 20260506184546 | 18 | 203 | 1.6 | 4.8 | 0.00 | 0.00 | 0.00 | 23 | 1011.8 |
| 20260506183546 | 18 | 253 | 3.2 | 8.0 | 0.00 | 0.00 | 0.00 | 23 | 1011.9 |
| 20260506182546 | 19 | 225 | 6.4 | 9.7 | 0.00 | 0.00 | 0.00 | 23 | 1011.9 |
| 20260506181545 | 19 | 248 | 9.7 | 16.1 | 0.00 | 0.00 | 0.00 | 23 | 1011.9 |
| 20260506180545 | 20 | 256 | 6.4 | 16.1 | 0.00 | 0.00 | 0.00 | 23 | 1011.9 |
| 20260506175545 | 19 | 0 | 0.0 | 0.0 | 0.00 | 0.00 | 0.00 | 23 | 1011.9 |
| 20260506174544 | 19 | 270 | 0.0 | 0.0 | 0.00 | 0.00 | 0.00 | 23 | 1011.9 |
| 20260506173544 | 19 | 257 | 0.0 | 0.0 | 0.00 | 0.00 | 0.00 | 23 | 1011.9 |
| 20260506172544 | 20 | 258 | 4.8 | 8.0 | 0.00 | 0.00 | 0.00 | 23 | 1012.1 |
| 20260506171543 | -31 | 270 | 8.0 | 8.0 | 0.00 | 0.00 | 0.00 | 13 | 944.5 |
| 20260506170543 | 20 | 265 | 4.8 | 8.0 | 0.00 | 0.00 | 0.00 | 23 | 1012.2 |
| 20260506165543 | 20 | 232 | 1.6 | 3.2 | 0.00 | 0.00 | 0.00 | 22 | 1012.2 |
| 20260506164543 | 20 | 223 | 3.2 | 6.4 | 0.00 | 0.00 | 0.00 | 23 | 1012.2 |
| 20260506163542 | 20 | 257 | 6.4 | 8.0 | 0.00 | 0.00 | 0.00 | 22 | 1012.2 |
| 20260506162542 | 20 | 244 | 4.8 | 11.3 | 0.00 | 0.00 | 0.00 | 22 | 1012.3 |
| 20260506161542 | 20 | 256 | 4.8 | 8.0 | 0.00 | 0.00 | 0.00 | 22 | 1012.5 |
| 20260506160542 | 20 | 252 | 6.4 | 11.3 | 0.00 | 0.00 | 0.00 | 22 | 1012.6 |
| 20260506155541 | 21 | 241 | 8.0 | 11.3 | 0.00 | 0.00 | 0.00 | 22 | 1012.8 |
| 20260506154541 | 22 | 267 | 6.4 | 9.7 | 0.00 | 0.00 | 0.00 | 21 | 1013.0 |
| 20260506153541 | 22 | 265 | 6.4 | 8.0 | 0.00 | 0.00 | 0.00 | 21 | 1013.2 |
| 20260506152540 | 21 | 246 | 8.0 | 11.3 | 0.00 | 0.00 | 0.00 | 22 | 1013.1 |
| 20260506151540 | 21 | 225 | 6.4 | 11.3 | 0.00 | 0.00 | 0.00 | 22 | 1013.3 |
| 20260506150540 | 21 | 255 | 8.0 | 9.7 | 0.00 | 0.00 | 0.00 | 22 | 1013.1 |
| 20260506145539 | 22 | 238 | 6.4 | 8.0 | 0.00 | 0.00 | 0.00 | 21 | 1013.3 |